createdAt,value
2022-11-16T00:00:20.022Z,89.11
2022-11-16T00:01:18.458Z,89.13
2022-11-16T00:02:18.735Z,89.16
2022-11-16T00:03:18.671Z,89.29
2022-11-16T00:04:18.347Z,89.36
2022-11-16T00:05:50.946Z,89.22
2022-11-16T00:06:18.208Z,89.22
2022-11-16T00:07:18.257Z,89.18
2022-11-16T00:08:17.687Z,89.25
2022-11-16T00:09:18.820Z,89.31
2022-11-16T00:10:18.521Z,89.38
2022-11-16T00:11:18.812Z,89.43
2022-11-16T00:12:18.689Z,89.46
2022-11-16T00:13:18.589Z,89.41
2022-11-16T00:14:18.441Z,89.51
2022-11-16T00:16:18.115Z,89.52
2022-11-16T00:17:18.152Z,89.60
2022-11-16T00:18:18.077Z,89.64
2022-11-16T00:19:18.045Z,89.66
2022-11-16T00:20:17.594Z,89.66
2022-11-16T00:21:18.167Z,89.69
2022-11-16T00:22:17.576Z,89.67
2022-11-16T00:23:17.128Z,89.72
2022-11-16T00:24:17.848Z,89.86
2022-11-16T00:25:18.440Z,89.96
2022-11-16T00:26:18.008Z,89.93
2022-11-16T00:27:17.469Z,89.98
2022-11-16T00:28:17.601Z,89.96
2022-11-16T00:29:18.302Z,89.96
2022-11-16T00:30:17.920Z,89.94
2022-11-16T00:31:18.391Z,89.93
2022-11-16T00:32:17.670Z,89.97
2022-11-16T00:33:18.434Z,89.91
2022-11-16T00:34:17.733Z,89.92
2022-11-16T00:35:18.534Z,90.05
2022-11-16T00:36:17.702Z,90.10
2022-11-16T00:37:18.363Z,90.13
2022-11-16T00:38:17.678Z,90.11
2022-11-16T00:39:18.830Z,90.10
2022-11-16T00:40:18.234Z,90.12
2022-11-16T00:41:18.103Z,90.13
2022-11-16T00:42:17.603Z,90.13
2022-11-16T00:43:18.166Z,90.16
2022-11-16T00:44:18.317Z,90.12
2022-11-16T00:45:18.585Z,90.14
2022-11-16T00:46:18.320Z,90.15
2022-11-16T00:47:18.151Z,90.16
2022-11-16T00:48:17.564Z,90.19
2022-11-16T00:49:18.266Z,90.24
2022-11-16T00:50:17.999Z,90.23
2022-11-16T00:51:17.796Z,90.16
2022-11-16T00:52:18.334Z,90.15
2022-11-16T00:53:17.856Z,90.19
2022-11-16T00:54:18.076Z,90.26
2022-11-16T00:55:18.171Z,90.24
2022-11-16T00:56:17.489Z,90.23
2022-11-16T00:57:18.363Z,90.23
2022-11-16T00:58:17.465Z,90.30
2022-11-16T00:59:17.910Z,90.33
2022-11-16T01:00:19.380Z,90.29
2022-11-16T01:01:20.516Z,90.27
2022-11-16T01:02:18.362Z,90.31
2022-11-16T01:03:18.098Z,90.39
2022-11-16T01:04:17.684Z,90.52
2022-11-16T01:05:18.652Z,90.60
2022-11-16T01:06:17.271Z,90.73
2022-11-16T01:07:17.885Z,90.67
2022-11-16T01:08:18.034Z,90.62
2022-11-16T01:09:17.738Z,90.70
2022-11-16T01:10:18.144Z,90.74
2022-11-16T01:11:17.685Z,90.80
2022-11-16T01:12:17.950Z,90.87
2022-11-16T01:13:18.441Z,90.90
2022-11-16T01:14:18.359Z,90.85
2022-11-16T01:15:18.244Z,90.77
2022-11-16T01:17:18.583Z,90.91
2022-11-16T01:18:17.932Z,90.93
2022-11-16T01:19:18.585Z,90.95
2022-11-16T01:20:18.209Z,90.99
2022-11-16T01:21:18.221Z,91.08
2022-11-16T01:22:17.918Z,91.10
2022-11-16T01:23:18.663Z,91.16
2022-11-16T01:24:18.209Z,91.13
2022-11-16T01:25:18.317Z,91.06
2022-11-16T01:26:17.957Z,91.03
2022-11-16T01:27:18.382Z,91.07
2022-11-16T01:28:17.594Z,91.18
2022-11-16T01:29:18.185Z,91.18
2022-11-16T01:30:17.760Z,91.14
2022-11-16T01:31:18.465Z,91.08
2022-11-16T01:32:31.814Z,90.93
2022-11-16T01:33:18.643Z,90.93
2022-11-16T01:34:17.871Z,90.86
2022-11-16T01:35:18.775Z,90.91
2022-11-16T01:36:18.248Z,90.96
2022-11-16T01:37:18.136Z,90.98
2022-11-16T01:38:17.605Z,91.06
2022-11-16T01:39:18.038Z,91.07
2022-11-16T01:40:17.713Z,91.12
2022-11-16T01:41:18.304Z,91.17
2022-11-16T01:42:17.758Z,91.21
2022-11-16T01:43:18.265Z,91.22
2022-11-16T01:44:17.605Z,91.23
2022-11-16T01:45:18.280Z,91.24
2022-11-16T01:46:18.069Z,91.22
2022-11-16T01:47:17.684Z,91.26
2022-11-16T01:48:18.300Z,91.21
2022-11-16T01:49:18.321Z,91.15
2022-11-16T01:50:17.999Z,91.16
2022-11-16T01:51:17.911Z,91.19
2022-11-16T01:52:18.436Z,91.30
2022-11-16T01:53:17.705Z,91.37
2022-11-16T01:54:18.266Z,91.41
2022-11-16T01:55:17.920Z,91.36
2022-11-16T01:56:18.633Z,91.30
2022-11-16T01:57:18.107Z,91.43
2022-11-16T01:58:17.436Z,91.44
2022-11-16T01:59:18.117Z,91.40
2022-11-16T02:00:18.657Z,91.41
2022-11-16T02:01:18.511Z,91.42
2022-11-16T02:02:18.157Z,91.43
2022-11-16T02:03:18.340Z,91.48
2022-11-16T02:04:17.427Z,91.39
2022-11-16T02:05:18.281Z,91.31
2022-11-16T02:06:17.442Z,91.28
2022-11-16T02:07:18.319Z,91.26
2022-11-16T02:08:17.689Z,91.20
2022-11-16T02:09:17.950Z,91.22
2022-11-16T02:10:18.811Z,91.35
2022-11-16T02:11:18.127Z,91.25
2022-11-16T02:12:18.300Z,91.12
2022-11-16T02:13:17.597Z,91.21
2022-11-16T02:14:18.109Z,91.29
2022-11-16T02:15:18.038Z,91.42
2022-11-16T02:16:17.859Z,91.41
2022-11-16T02:17:18.595Z,91.33
2022-11-16T02:18:17.375Z,91.27
2022-11-16T02:19:18.139Z,91.23
2022-11-16T02:20:17.672Z,91.38
2022-11-16T02:21:18.259Z,91.43
2022-11-16T02:22:17.354Z,91.38
2022-11-16T02:23:18.019Z,91.32
2022-11-16T02:24:17.524Z,91.30
2022-11-16T02:25:18.062Z,91.27
2022-11-16T02:26:17.452Z,91.29
2022-11-16T02:27:18.138Z,91.33
2022-11-16T02:28:17.329Z,91.35
2022-11-16T02:29:17.771Z,91.44
2022-11-16T02:30:18.651Z,91.48
2022-11-16T02:31:18.262Z,91.55
2022-11-16T02:32:17.332Z,91.51
2022-11-16T02:33:18.091Z,91.49
2022-11-16T02:34:17.532Z,91.43
2022-11-16T02:35:18.426Z,91.25
2022-11-16T02:36:17.873Z,91.06
2022-11-16T02:37:18.748Z,90.93
2022-11-16T02:38:18.039Z,90.93
2022-11-16T02:39:17.806Z,90.91
2022-11-16T02:40:18.595Z,90.82
2022-11-16T02:41:18.445Z,90.65
2022-11-16T02:42:17.945Z,90.52
2022-11-16T02:43:18.534Z,90.37
2022-11-16T02:44:17.919Z,90.20
2022-11-16T02:45:18.806Z,90.10
2022-11-16T02:46:18.279Z,89.95
2022-11-16T02:47:18.039Z,90.04
2022-11-16T02:48:17.909Z,90.23
2022-11-16T02:49:18.310Z,90.33
2022-11-16T02:50:17.745Z,90.39
2022-11-16T02:51:18.498Z,90.40
2022-11-16T02:52:17.764Z,90.39
2022-11-16T02:53:18.152Z,90.34
2022-11-16T02:54:17.795Z,90.31
2022-11-16T02:55:18.776Z,90.28
2022-11-16T02:56:17.898Z,90.34
2022-11-16T02:57:18.673Z,90.48
2022-11-16T02:58:18.082Z,90.57
2022-11-16T02:59:23.802Z,90.76
2022-11-16T03:00:19.500Z,90.76
2022-11-16T03:01:18.358Z,90.86
2022-11-16T03:02:18.065Z,90.89
2022-11-16T03:03:17.687Z,90.84
2022-11-16T03:04:17.979Z,90.79
2022-11-16T03:05:17.676Z,90.79
2022-11-16T03:06:17.704Z,90.84
2022-11-16T03:07:19.124Z,90.87
2022-11-16T03:08:17.619Z,90.81
2022-11-16T03:09:18.255Z,90.77
2022-11-16T03:10:17.477Z,90.76
2022-11-16T03:11:18.158Z,90.84
2022-11-16T03:12:17.501Z,90.90
2022-11-16T03:13:17.685Z,90.93
2022-11-16T03:14:18.191Z,91.03
2022-11-16T03:15:18.172Z,91.12
2022-11-16T03:16:17.999Z,91.12
2022-11-16T03:17:17.877Z,91.14
2022-11-16T03:18:18.495Z,91.12
2022-11-16T03:19:18.136Z,91.08
2022-11-16T03:20:17.572Z,91.10
2022-11-16T03:21:18.048Z,91.08
2022-11-16T03:22:18.011Z,91.06
2022-11-16T03:23:17.775Z,91.02
2022-11-16T03:24:18.429Z,91.01
2022-11-16T03:25:18.112Z,90.88
2022-11-16T03:26:17.597Z,90.88
2022-11-16T03:27:18.283Z,90.82
2022-11-16T03:28:17.675Z,90.86
2022-11-16T03:29:18.123Z,90.80
2022-11-16T03:30:22.316Z,90.42
2022-11-16T03:31:22.373Z,90.36
2022-11-16T03:32:17.802Z,90.36
2022-11-16T03:33:18.385Z,90.49
2022-11-16T03:34:17.708Z,90.67
2022-11-16T03:35:18.428Z,90.82
2022-11-16T03:36:18.253Z,90.86
2022-11-16T03:37:18.194Z,90.87
2022-11-16T03:38:17.617Z,90.85
2022-11-16T03:39:17.960Z,90.84
2022-11-16T03:40:18.554Z,90.83
2022-11-16T03:41:18.144Z,90.87
2022-11-16T03:42:17.974Z,91.00
2022-11-16T03:43:18.614Z,91.11
2022-11-16T03:44:18.110Z,91.16
2022-11-16T03:45:18.277Z,91.12
2022-11-16T03:46:17.571Z,91.06
2022-11-16T03:47:18.317Z,91.05
2022-11-16T03:48:17.904Z,91.13
2022-11-16T03:49:18.672Z,91.18
2022-11-16T03:50:18.211Z,91.23
2022-11-16T03:51:17.671Z,91.24
2022-11-16T03:52:18.533Z,91.24
2022-11-16T03:53:18.111Z,91.21
2022-11-16T03:54:17.792Z,91.27
2022-11-16T03:55:18.655Z,91.15
2022-11-16T03:56:18.209Z,91.11
2022-11-16T03:57:17.926Z,91.11
2022-11-16T03:58:18.279Z,91.13
2022-11-16T03:59:18.027Z,91.21
2022-11-16T04:00:18.836Z,91.26
2022-11-16T04:01:26.738Z,91.36
2022-11-16T04:02:18.391Z,91.42
2022-11-16T04:03:37.039Z,91.29
2022-11-16T04:04:18.243Z,91.29
2022-11-16T04:05:17.827Z,91.20
2022-11-16T04:06:18.182Z,91.19
2022-11-16T04:07:18.075Z,91.25
2022-11-16T04:08:17.804Z,91.23
2022-11-16T04:09:18.353Z,91.29
2022-11-16T04:10:18.063Z,91.26
2022-11-16T04:11:17.808Z,91.29
2022-11-16T04:12:18.081Z,91.28
2022-11-16T04:13:17.984Z,91.27
2022-11-16T04:14:17.904Z,91.23
2022-11-16T04:15:19.262Z,91.29
2022-11-16T04:16:17.589Z,91.35
2022-11-16T04:17:18.378Z,91.38
2022-11-16T04:18:17.826Z,91.35
2022-11-16T04:19:18.430Z,91.25
2022-11-16T04:20:18.111Z,91.15
2022-11-16T04:21:18.266Z,91.26
2022-11-16T04:22:18.061Z,91.20
2022-11-16T04:23:17.901Z,91.18
2022-11-16T04:24:18.455Z,91.17
2022-11-16T04:25:18.456Z,91.26
2022-11-16T04:26:18.665Z,91.19
2022-11-16T04:27:18.456Z,91.19
2022-11-16T04:28:18.321Z,91.05
2022-11-16T04:29:18.252Z,90.96
2022-11-16T04:30:18.959Z,90.90
2022-11-16T04:31:18.898Z,90.87
2022-11-16T04:32:19.049Z,91
2022-11-16T04:33:18.324Z,91.15
2022-11-16T04:34:18.090Z,91.18
2022-11-16T04:35:18.042Z,91.11
2022-11-16T04:36:22.047Z,91.13
2022-11-16T04:37:17.939Z,91.08
2022-11-16T04:38:18.643Z,91.03
2022-11-16T04:39:18.616Z,91.02
2022-11-16T04:40:18.577Z,91.03
2022-11-16T04:41:18.679Z,91.13
2022-11-16T04:42:18.544Z,91.23
2022-11-16T04:43:18.655Z,91.33
2022-11-16T04:44:18.464Z,91.49
2022-11-16T04:45:18.527Z,91.58
2022-11-16T04:46:18.458Z,91.63
2022-11-16T04:47:18.449Z,91.67
2022-11-16T04:48:18.279Z,91.73
2022-11-16T04:49:18.419Z,91.72
2022-11-16T04:50:18.542Z,91.69
2022-11-16T04:51:18.929Z,91.66
2022-11-16T04:52:18.686Z,91.68
2022-11-16T04:53:18.477Z,91.69
2022-11-16T04:54:18.479Z,91.59
2022-11-16T04:55:18.220Z,91.44
2022-11-16T04:56:18.177Z,91.39
2022-11-16T04:57:17.939Z,91.40
2022-11-16T04:58:19.042Z,91.45
2022-11-16T04:59:18.170Z,91.48
2022-11-16T05:00:19.312Z,91.44
2022-11-16T05:01:53.865Z,91.47
2022-11-16T05:02:19.039Z,91.47
2022-11-16T05:03:17.677Z,91.40
2022-11-16T05:04:18.488Z,91.32
2022-11-16T05:05:18.681Z,91.10
2022-11-16T05:06:18.558Z,90.81
2022-11-16T05:07:18.523Z,90.69
2022-11-16T05:08:18.076Z,90.56
2022-11-16T05:09:18.124Z,90.41
2022-11-16T05:10:18.084Z,90.43
2022-11-16T05:11:18.170Z,90.48
2022-11-16T05:12:18.209Z,90.46
2022-11-16T05:13:18.734Z,90.39
2022-11-16T05:14:18.602Z,90.31
2022-11-16T05:15:18.952Z,90.31
2022-11-16T05:16:18.621Z,90.29
2022-11-16T05:17:18.430Z,90.27
2022-11-16T05:18:18.384Z,90.02
2022-11-16T05:19:18.612Z,89.90
2022-11-16T05:20:18.511Z,89.95
2022-11-16T05:21:18.481Z,89.90
2022-11-16T05:22:18.436Z,89.82
2022-11-16T05:23:18.689Z,89.73
2022-11-16T05:24:18.827Z,89.69
2022-11-16T05:25:19.251Z,89.72
2022-11-16T05:26:18.363Z,89.67
2022-11-16T05:27:18.433Z,89.61
2022-11-16T05:28:18.403Z,89.46
2022-11-16T05:29:18.499Z,89.48
2022-11-16T05:30:18.985Z,89.52
2022-11-16T05:31:17.912Z,89.49
2022-11-16T05:32:19.022Z,89.36
2022-11-16T05:33:18.276Z,89.31
2022-11-16T05:34:18.415Z,89.30
2022-11-16T05:35:18.782Z,89.18
2022-11-16T05:36:18.541Z,89.00
2022-11-16T05:37:18.997Z,88.90
2022-11-16T05:38:18.529Z,88.86
2022-11-16T05:39:19.134Z,88.80
2022-11-16T05:40:18.442Z,88.82
2022-11-16T05:41:18.540Z,88.70
2022-11-16T05:42:18.697Z,88.57
2022-11-16T05:43:18.779Z,88.49
2022-11-16T05:44:19.119Z,88.36
2022-11-16T05:45:25.178Z,88.28
2022-11-16T05:46:18.687Z,88.28
2022-11-16T05:47:18.597Z,88.34
2022-11-16T05:48:18.521Z,88.38
2022-11-16T05:49:18.503Z,88.30
2022-11-16T05:50:20.434Z,88.26
2022-11-16T05:51:18.754Z,88.31
2022-11-16T05:52:18.678Z,88.33
2022-11-16T05:53:18.863Z,88.28
2022-11-16T05:54:18.850Z,88.16
2022-11-16T05:55:19.457Z,88.02
2022-11-16T05:56:18.491Z,87.74
2022-11-16T05:57:18.822Z,87.47
2022-11-16T05:58:19.237Z,87.41
2022-11-16T05:59:23.239Z,87.56
2022-11-16T06:00:19.407Z,87.56
2022-11-16T06:01:18.729Z,87.67
2022-11-16T06:02:19.157Z,87.67
2022-11-16T06:03:18.975Z,87.63
2022-11-16T06:04:23.332Z,87.56
2022-11-16T06:05:18.758Z,87.50
2022-11-16T06:06:18.917Z,87.38
2022-11-16T06:07:18.918Z,87.35
2022-11-16T06:08:18.978Z,87.44
2022-11-16T06:09:19.316Z,87.42
2022-11-16T06:10:18.226Z,87.56
2022-11-16T06:11:18.284Z,87.49
2022-11-16T06:12:18.413Z,87.46
2022-11-16T06:13:18.563Z,87.53
2022-11-16T06:14:18.792Z,87.48
2022-11-16T06:15:19.140Z,87.50
2022-11-16T06:16:18.744Z,87.57
2022-11-16T06:17:18.993Z,87.56
2022-11-16T06:18:18.166Z,87.51
2022-11-16T06:19:18.171Z,87.43
2022-11-16T06:20:18.556Z,87.38
2022-11-16T06:21:18.936Z,87.42
2022-11-16T06:22:19.329Z,87.39
2022-11-16T06:23:18.825Z,87.26
2022-11-16T06:24:19.298Z,87.16
2022-11-16T06:25:18.511Z,87.07
2022-11-16T06:26:18.615Z,87.04
2022-11-16T06:27:18.926Z,87.03
2022-11-16T06:28:18.975Z,87.05
2022-11-16T06:29:19.053Z,87.11
2022-11-16T06:30:19.063Z,87.19
2022-11-16T06:31:18.007Z,87.23
2022-11-16T06:32:18.321Z,87.09
2022-11-16T06:33:18.181Z,86.96
2022-11-16T06:34:18.116Z,86.98
2022-11-16T06:35:18.446Z,86.78
2022-11-16T06:36:18.856Z,86.69
2022-11-16T06:37:19.057Z,86.68
2022-11-16T06:38:18.251Z,86.59
2022-11-16T06:39:18.298Z,86.49
2022-11-16T06:40:18.501Z,86.37
2022-11-16T06:41:18.590Z,86.22
2022-11-16T06:42:18.622Z,86.27
2022-11-16T06:43:18.897Z,86.38
2022-11-16T06:44:18.811Z,86.33
2022-11-16T06:45:18.938Z,86.27
2022-11-16T06:46:19.253Z,86.17
2022-11-16T06:47:18.591Z,86.19
2022-11-16T06:48:37.928Z,86.26
2022-11-16T06:49:18.002Z,86.30
2022-11-16T06:50:18.159Z,86.34
2022-11-16T06:51:18.158Z,86.31
2022-11-16T06:52:18.159Z,86.43
2022-11-16T06:53:18.448Z,86.48
2022-11-16T06:54:18.372Z,86.47
2022-11-16T06:55:18.558Z,86.31
2022-11-16T06:56:18.457Z,86.30
2022-11-16T06:57:18.755Z,86.32
2022-11-16T06:58:18.483Z,86.36
2022-11-16T06:59:18.913Z,86.39
2022-11-16T07:00:20.005Z,86.44
2022-11-16T07:01:18.202Z,86.45
2022-11-16T07:02:46.421Z,86.27
2022-11-16T07:03:18.508Z,86.27
2022-11-16T07:04:18.825Z,86.38
2022-11-16T07:05:19.038Z,86.26
2022-11-16T07:06:18.275Z,86.12
2022-11-16T07:07:18.928Z,86.14
2022-11-16T07:08:18.235Z,86.16
2022-11-16T07:09:18.713Z,86.29
2022-11-16T07:10:18.966Z,86.41
2022-11-16T07:11:18.874Z,86.36
2022-11-16T07:12:18.912Z,86.25
2022-11-16T07:13:19.105Z,86.12
2022-11-16T07:14:18.501Z,86.26
2022-11-16T07:15:19.033Z,86.31
2022-11-16T07:16:18.353Z,86.26
2022-11-16T07:17:18.497Z,86.22
2022-11-16T07:18:18.796Z,86.21
2022-11-16T07:19:19.011Z,86.24
2022-11-16T07:20:18.396Z,86.25
2022-11-16T07:21:18.355Z,86.19
2022-11-16T07:22:18.504Z,86.19
2022-11-16T07:23:21.231Z,86.25
2022-11-16T07:24:18.820Z,86.18
2022-11-16T07:25:19.449Z,86.24
2022-11-16T07:26:18.689Z,86.32
2022-11-16T07:27:18.878Z,86.19
2022-11-16T07:28:18.962Z,86.12
2022-11-16T07:29:19.263Z,86.12
2022-11-16T07:30:18.988Z,86.08
2022-11-16T07:31:19.359Z,86.07
2022-11-16T07:32:18.681Z,86.19
2022-11-16T07:33:19.042Z,86.19
2022-11-16T07:34:18.512Z,86.19
2022-11-16T07:35:18.730Z,86.11
2022-11-16T07:36:18.962Z,86.01
2022-11-16T07:37:19.005Z,85.93
2022-11-16T07:39:18.708Z,86.28
2022-11-16T07:40:19.031Z,86.33
2022-11-16T07:41:17.843Z,86.28
2022-11-16T07:42:19.080Z,86.25
2022-11-16T07:43:18.709Z,86.28
2022-11-16T07:44:19.166Z,86.39
2022-11-16T07:45:18.617Z,86.46
2022-11-16T07:46:52.751Z,86.45
2022-11-16T07:47:18.845Z,86.45
2022-11-16T07:48:18.838Z,86.41
2022-11-16T07:49:19.114Z,86.47
2022-11-16T07:50:18.226Z,86.48
2022-11-16T07:51:18.333Z,86.50
2022-11-16T07:52:18.821Z,86.54
2022-11-16T07:53:19.471Z,86.55
2022-11-16T07:54:18.759Z,86.60
2022-11-16T07:55:19.150Z,86.73
2022-11-16T07:56:18.088Z,86.90
2022-11-16T07:57:18.385Z,86.82
2022-11-16T07:58:18.429Z,86.63
2022-11-16T07:59:18.694Z,86.68
2022-11-16T08:00:19.781Z,86.53
2022-11-16T08:01:19.066Z,86.51
2022-11-16T08:02:18.535Z,86.58
2022-11-16T08:03:24.401Z,86.63
2022-11-16T08:04:18.690Z,86.67
2022-11-16T08:05:19.112Z,86.72
2022-11-16T08:06:18.033Z,86.76
2022-11-16T08:07:18.874Z,86.70
2022-11-16T08:08:19.309Z,86.55
2022-11-16T08:09:18.586Z,86.49
2022-11-16T08:10:18.991Z,86.42
2022-11-16T08:11:18.075Z,86.43
2022-11-16T08:12:18.030Z,86.41
2022-11-16T08:13:18.111Z,86.41
2022-11-16T08:14:18.043Z,86.48
2022-11-16T08:15:18.275Z,86.50
2022-11-16T08:16:18.578Z,86.67
2022-11-16T08:17:18.498Z,86.64
2022-11-16T08:18:18.681Z,86.49
2022-11-16T08:19:23.545Z,86.48
2022-11-16T08:20:19.377Z,86.48
2022-11-16T08:21:23.398Z,86.73
2022-11-16T08:22:19.099Z,86.73
2022-11-16T08:23:23.407Z,86.83
2022-11-16T08:24:19.414Z,86.80
2022-11-16T08:25:24.535Z,86.76
2022-11-16T08:26:19.855Z,86.69
2022-11-16T08:27:25.075Z,86.55
2022-11-16T08:28:18.695Z,86.55
2022-11-16T08:29:19.678Z,86.51
2022-11-16T08:30:20.727Z,86.57
2022-11-16T08:31:19.312Z,86.73
2022-11-16T08:32:19.014Z,86.78
2022-11-16T08:33:27.293Z,86.68
2022-11-16T08:34:20.407Z,86.68
2022-11-16T08:35:27.233Z,86.73
2022-11-16T08:36:21.155Z,86.73
2022-11-16T08:37:19.589Z,86.80
2022-11-16T08:38:23.074Z,86.62
2022-11-16T08:39:22.054Z,86.29
2022-11-16T08:40:20.002Z,86.20
2022-11-16T08:41:23.574Z,86.62
2022-11-16T08:42:19.802Z,86.74
2022-11-16T08:43:24.443Z,86.60
2022-11-16T08:44:19.457Z,86.46
2022-11-16T08:45:19.324Z,86.56
2022-11-16T08:46:19.872Z,86.74
2022-11-16T08:47:34.666Z,86.75
2022-11-16T08:48:19.878Z,86.75
2022-11-16T08:49:20.463Z,86.77
2022-11-16T08:50:20.325Z,86.78
2022-11-16T08:51:26.218Z,86.81
2022-11-16T08:52:18.948Z,86.81
2022-11-16T08:53:27.747Z,86.76
2022-11-16T08:54:20.176Z,86.73
2022-11-16T08:55:19.988Z,86.56
2022-11-16T08:56:18.898Z,86.48
2022-11-16T08:57:20.080Z,86.72
2022-11-16T08:58:19.065Z,86.90
2022-11-16T08:59:19.430Z,86.77
2022-11-16T09:00:21.250Z,86.68
2022-11-16T09:01:19.738Z,86.77
2022-11-16T09:02:20.306Z,86.92
2022-11-16T09:03:19.468Z,86.98
2022-11-16T09:04:20.027Z,87.02
2022-11-16T09:05:19.388Z,87.03
2022-11-16T09:06:19.372Z,86.99
2022-11-16T09:07:19.610Z,86.96
2022-11-16T09:08:19.290Z,87.03
2022-11-16T09:09:19.470Z,86.97
2022-11-16T09:10:18.971Z,86.90
2022-11-16T09:11:19.260Z,86.93
2022-11-16T09:12:20.109Z,86.75
2022-11-16T09:13:18.584Z,86.65
2022-11-16T09:14:18.807Z,86.59
2022-11-16T09:15:19.158Z,86.54
2022-11-16T09:16:18.916Z,86.57
2022-11-16T09:17:23.166Z,86.61
2022-11-16T09:18:18.554Z,86.38
2022-11-16T09:19:18.793Z,86.01
2022-11-16T09:20:19.177Z,85.85
2022-11-16T09:21:18.750Z,85.87
2022-11-16T09:22:18.933Z,85.74
2022-11-16T09:23:24.898Z,85.40
2022-11-16T09:24:18.966Z,85.40
2022-11-16T09:25:19.662Z,85.10
2022-11-16T09:26:18.832Z,85.18
2022-11-16T09:27:19.264Z,85.25
2022-11-16T09:28:18.568Z,85.20
2022-11-16T09:29:18.773Z,85.30
2022-11-16T09:30:19.650Z,85.38
2022-11-16T09:31:23.178Z,85.29
2022-11-16T09:32:18.884Z,85.02
2022-11-16T09:33:19.363Z,84.94
2022-11-16T09:34:18.742Z,84.5
2022-11-16T09:35:19.044Z,84.26
2022-11-16T09:36:18.691Z,83.99
2022-11-16T09:37:19.009Z,84.00
2022-11-16T09:39:37.519Z,83.72
2022-11-16T09:40:19.237Z,83.72
2022-11-16T09:41:19.071Z,83.56
2022-11-16T09:42:18.263Z,83.67
2022-11-16T09:43:18.597Z,83.38
2022-11-16T09:44:18.837Z,83.39
2022-11-16T09:45:19.248Z,83.33
2022-11-16T09:46:18.671Z,82.93
2022-11-16T09:47:18.771Z,82.88
2022-11-16T09:48:18.948Z,83.08
2022-11-16T09:49:23.857Z,83.31
2022-11-16T09:50:19.121Z,83.31
2022-11-16T09:51:18.444Z,83.60
2022-11-16T09:52:19.161Z,83.29
2022-11-16T09:53:18.657Z,82.94
2022-11-16T09:54:19.251Z,82.71
2022-11-16T09:55:22.822Z,82.65
2022-11-16T09:57:19.806Z,82.86
2022-11-16T09:58:18.966Z,82.51
2022-11-16T09:59:25.091Z,82.36
2022-11-16T10:00:19.359Z,82.36
2022-11-16T10:01:18.802Z,82.27
2022-11-16T10:02:18.783Z,82.40
2022-11-16T10:03:19.489Z,82.58
2022-11-16T10:04:18.825Z,82.66
2022-11-16T10:05:19.473Z,82.74
2022-11-16T10:06:18.705Z,82.65
2022-11-16T10:07:19.252Z,82.39
2022-11-16T10:08:19.209Z,82.10
2022-11-16T10:09:18.925Z,81.80
2022-11-16T10:10:19.646Z,81.77
2022-11-16T10:11:19.084Z,81.75
2022-11-16T10:12:18.907Z,81.64
2022-11-16T10:13:19.471Z,81.44
2022-11-16T10:14:18.630Z,81.36
2022-11-16T10:15:19.101Z,81.53
2022-11-16T10:16:18.418Z,81.69
2022-11-16T10:17:19.720Z,81.72
2022-11-16T10:18:18.835Z,81.33
2022-11-16T10:19:19.296Z,81.21
2022-11-16T10:20:18.689Z,81.27
2022-11-16T10:21:19.138Z,81.30
2022-11-16T10:22:18.555Z,81.37
2022-11-16T10:23:19.248Z,81.30
2022-11-16T10:24:19.024Z,81.17
2022-11-16T10:25:18.781Z,80.99
2022-11-16T10:26:19.294Z,80.83
2022-11-16T10:27:21.962Z,80.91
2022-11-16T10:28:18.756Z,80.97
2022-11-16T10:29:18.704Z,80.99
2022-11-16T10:30:19.804Z,80.93
2022-11-16T10:31:19.318Z,81.02
2022-11-16T10:32:19.418Z,81.11
2022-11-16T10:33:19.098Z,81.05
2022-11-16T10:34:19.263Z,80.91
2022-11-16T10:35:19.002Z,80.91
2022-11-16T10:36:18.460Z,80.66
2022-11-16T10:37:18.785Z,80.38
2022-11-16T10:38:20.677Z,80.55
2022-11-16T10:39:19.359Z,80.37
2022-11-16T10:40:18.808Z,80.33
2022-11-16T10:41:19.020Z,80.30
2022-11-16T10:42:18.135Z,80.66
2022-11-16T10:43:19.034Z,80.36
2022-11-16T10:44:18.579Z,80.02
2022-11-16T10:45:19.559Z,79.13
2022-11-16T10:47:19.476Z,79.15
2022-11-16T10:48:18.734Z,79.04
2022-11-16T10:49:19.607Z,78.91
2022-11-16T10:51:19.199Z,79.20
2022-11-16T10:52:23.418Z,79.04
2022-11-16T10:53:18.444Z,78.93
2022-11-16T10:54:18.934Z,78.94
2022-11-16T10:55:19.460Z,79.12
2022-11-16T10:56:19.036Z,79.05
2022-11-16T10:57:18.377Z,78.58
2022-11-16T10:58:18.451Z,78.61
2022-11-16T10:59:18.620Z,78.41
2022-11-16T11:00:29.228Z,78.80
2022-11-16T11:01:18.667Z,78.80
2022-11-16T11:14:18.182Z,78.16
2022-11-16T11:15:25.335Z,78.02
2022-11-16T11:16:17.732Z,78.12
2022-11-16T11:17:18.302Z,78.06
2022-11-16T11:18:17.685Z,78.09
2022-11-16T11:19:18.248Z,78.14
2022-11-16T11:20:18.397Z,78.01
2022-11-16T11:21:18.040Z,78.07
2022-11-16T11:22:17.993Z,78.15
2022-11-16T11:23:17.797Z,78.01
2022-11-16T11:24:50.043Z,77.69
2022-11-16T11:25:18.221Z,77.69
2022-11-16T11:26:17.606Z,77.66
2022-11-16T11:27:18.242Z,77.57
2022-11-16T11:28:18.153Z,77.44
2022-11-16T11:29:17.993Z,77.51
2022-11-16T11:30:17.866Z,77.35
2022-11-16T11:31:18.331Z,77.29
2022-11-16T11:32:22.428Z,77.34
2022-11-16T11:33:17.936Z,77.26
2022-11-16T11:34:18.485Z,77.01
2022-11-16T11:35:18.616Z,76.53
2022-11-16T11:36:18.055Z,76.48
2022-11-16T11:37:18.006Z,76.41
2022-11-16T11:38:18.231Z,75.91
2022-11-16T11:39:18.361Z,76.08
2022-11-16T11:40:18.297Z,76.36
2022-11-16T11:41:18.192Z,76.31
2022-11-16T11:42:18.753Z,76.38
2022-11-16T11:43:25.240Z,76.34
2022-11-16T11:44:17.986Z,76.34
2022-11-16T11:45:17.783Z,75.95
2022-11-16T11:46:18.923Z,75.82
2022-11-16T11:48:05.377Z,75.99
2022-11-16T11:48:19.929Z,75.99
2022-11-16T11:49:18.491Z,75.92
2022-11-16T11:50:18.471Z,76.12
2022-11-16T11:51:18.070Z,76.06
2022-11-16T11:52:18.085Z,76.05
2022-11-16T11:53:17.933Z,76.37
2022-11-16T11:54:18.620Z,76.51
2022-11-16T11:55:18.556Z,76.47
2022-11-16T11:56:18.698Z,76.55
2022-11-16T11:57:17.879Z,76.58
2022-11-16T11:58:18.511Z,76.53
2022-11-16T11:59:17.989Z,76.49
2022-11-16T12:00:18.561Z,76.47
2022-11-16T12:01:22.301Z,76.52
2022-11-16T12:02:17.889Z,76.60
2022-11-16T12:03:19.244Z,76.62
2022-11-16T12:05:17.932Z,76.59
2022-11-16T12:06:18.728Z,76.35
2022-11-16T12:07:19.052Z,76.25
2022-11-16T12:08:18.143Z,76.34
2022-11-16T12:09:18.395Z,76.28
2022-11-16T12:10:18.518Z,76.38
2022-11-16T12:11:18.837Z,76.34
2022-11-16T12:12:21.904Z,76.51
2022-11-16T12:13:18.964Z,76.68
2022-11-16T12:14:18.995Z,76.66
2022-11-16T12:15:18.158Z,76.74
2022-11-16T12:16:18.315Z,76.62
2022-11-16T12:17:18.466Z,76.51
2022-11-16T12:18:18.555Z,76.58
2022-11-16T12:19:18.437Z,76.83
2022-11-16T12:20:18.847Z,76.84
2022-11-16T12:21:18.783Z,77.02
2022-11-16T12:22:19.098Z,77.08
2022-11-16T12:23:18.944Z,77.24
2022-11-16T12:24:19.076Z,77.06
2022-11-16T12:25:18.994Z,77.13
2022-11-16T12:26:18.101Z,77.32
2022-11-16T12:27:18.431Z,77.40
2022-11-16T12:28:18.397Z,77.37
2022-11-16T12:29:18.716Z,77.52
2022-11-16T12:30:19.235Z,77.48
2022-11-16T12:31:18.715Z,77.56
2022-11-16T12:32:18.651Z,77.80
2022-11-16T12:33:18.879Z,77.98
2022-11-16T12:34:18.769Z,78.06
2022-11-16T12:35:18.613Z,77.94
2022-11-16T12:36:18.591Z,78.13
2022-11-16T12:37:19.142Z,78.33
2022-11-16T12:38:23.131Z,78.25
2022-11-16T12:39:18.220Z,77.98
2022-11-16T12:40:18.615Z,77.99
2022-11-16T12:41:18.668Z,78.16
2022-11-16T12:42:19.298Z,78.35
2022-11-16T12:43:18.680Z,78.19
2022-11-16T12:44:19.430Z,78.18
2022-11-16T12:45:19.165Z,78.06
2022-11-16T12:46:18.579Z,78.01
2022-11-16T12:47:19.151Z,78.01
2022-11-16T12:48:18.955Z,78.04
2022-11-16T12:49:19.364Z,78.05
2022-11-16T12:50:20.699Z,78
2022-11-16T12:51:19.389Z,78.01
2022-11-16T12:52:19.130Z,77.95
2022-11-16T12:53:18.668Z,77.97
2022-11-16T12:54:20.238Z,78.08
2022-11-16T12:55:33.825Z,78.47
2022-11-16T12:56:20.137Z,78.47
2022-11-16T12:57:19.391Z,78.48
2022-11-16T12:58:19.028Z,78.01
2022-11-16T12:59:18.645Z,78.07
2022-11-16T13:00:19.817Z,77.89
2022-11-16T13:01:19.253Z,77.94
2022-11-16T13:02:18.616Z,77.94
2022-11-16T13:03:18.735Z,77.97
2022-11-16T13:04:19.177Z,77.98
2022-11-16T13:05:19.010Z,78.08
2022-11-16T13:06:18.441Z,78.22
2022-11-16T13:07:18.802Z,78.14
2022-11-16T13:08:18.699Z,78.09
2022-11-16T13:09:19.190Z,77.66
2022-11-16T13:10:18.625Z,77.57
2022-11-16T13:11:19.166Z,77.73
2022-11-16T13:12:18.338Z,78
2022-11-16T13:13:45.749Z,78.09